sensor_id;sensor_type;location;lat;lon;timestamp;P1;durP1;ratioP1;P2;durP2;ratioP2
51927;SDS011;37953;52.806;18.270;2023-08-08T00:00:09;5.05;;;2.10;;
51927;SDS011;37953;52.806;18.270;2023-08-08T00:02:56;6.35;;;1.70;;
51927;SDS011;37953;52.806;18.270;2023-08-08T00:05:22;8.32;;;2.00;;
51927;SDS011;37953;52.806;18.270;2023-08-08T00:07:48;9.18;;;2.10;;
51927;SDS011;37953;52.806;18.270;2023-08-08T00:10:14;6.65;;;1.90;;
51927;SDS011;37953;52.806;18.270;2023-08-08T00:12:39;7.15;;;1.67;;
51927;SDS011;37953;52.806;18.270;2023-08-08T00:15:05;8.32;;;2.00;;
51927;SDS011;37953;52.806;18.270;2023-08-08T00:17:31;6.30;;;1.85;;
51927;SDS011;37953;52.806;18.270;2023-08-08T00:19:57;8.38;;;1.70;;
51927;SDS011;37953;52.806;18.270;2023-08-08T00:22:23;4.78;;;1.85;;
51927;SDS011;37953;52.806;18.270;2023-08-08T00:24:50;6.10;;;1.83;;
51927;SDS011;37953;52.806;18.270;2023-08-08T00:27:15;4.22;;;1.30;;
51927;SDS011;37953;52.806;18.270;2023-08-08T00:29:42;5.88;;;1.75;;
51927;SDS011;37953;52.806;18.270;2023-08-08T00:32:07;8.18;;;2.20;;
51927;SDS011;37953;52.806;18.270;2023-08-08T00:34:34;8.63;;;1.92;;
51927;SDS011;37953;52.806;18.270;2023-08-08T00:36:59;5.45;;;1.98;;
51927;SDS011;37953;52.806;18.270;2023-08-08T00:39:25;8.38;;;1.90;;
51927;SDS011;37953;52.806;18.270;2023-08-08T00:41:51;5.80;;;1.83;;
51927;SDS011;37953;52.806;18.270;2023-08-08T00:44:17;6.95;;;1.83;;
51927;SDS011;37953;52.806;18.270;2023-08-08T00:46:43;8.90;;;2.05;;
51927;SDS011;37953;52.806;18.270;2023-08-08T00:49:09;5.72;;;1.80;;
51927;SDS011;37953;52.806;18.270;2023-08-08T00:51:35;4.22;;;1.70;;
51927;SDS011;37953;52.806;18.270;2023-08-08T00:54:01;7.53;;;2.10;;
51927;SDS011;37953;52.806;18.270;2023-08-08T00:56:28;4.28;;;1.70;;
51927;SDS011;37953;52.806;18.270;2023-08-08T00:58:54;5.85;;;1.98;;
51927;SDS011;37953;52.806;18.270;2023-08-08T01:01:20;7.60;;;2.28;;
51927;SDS011;37953;52.806;18.270;2023-08-08T01:03:46;5.60;;;1.83;;
51927;SDS011;37953;52.806;18.270;2023-08-08T01:12:01;9.73;;;2.38;;
51927;SDS011;37953;52.806;18.270;2023-08-08T01:14:28;7.28;;;2.40;;
51927;SDS011;37953;52.806;18.270;2023-08-08T01:16:57;7.55;;;2.08;;
51927;SDS011;37953;52.806;18.270;2023-08-08T01:19:27;6.30;;;2.05;;
51927;SDS011;37953;52.806;18.270;2023-08-08T01:22:04;6.85;;;2.20;;
51927;SDS011;37953;52.806;18.270;2023-08-08T01:24:32;10.95;;;2.47;;
51927;SDS011;37953;52.806;18.270;2023-08-08T01:27:02;8.00;;;2.03;;
51927;SDS011;37953;52.806;18.270;2023-08-08T01:29:28;7.50;;;2.25;;
51927;SDS011;37953;52.806;18.270;2023-08-08T01:31:55;7.40;;;1.85;;
51927;SDS011;37953;52.806;18.270;2023-08-08T01:34:21;10.95;;;2.50;;
51927;SDS011;37953;52.806;18.270;2023-08-08T01:37:03;9.20;;;2.25;;
51927;SDS011;37953;52.806;18.270;2023-08-08T01:39:49;8.05;;;2.42;;
51927;SDS011;37953;52.806;18.270;2023-08-08T01:42:23;7.68;;;2.30;;
51927;SDS011;37953;52.806;18.270;2023-08-08T01:44:50;10.15;;;2.35;;
51927;SDS011;37953;52.806;18.270;2023-08-08T01:47:25;9.48;;;2.25;;
51927;SDS011;37953;52.806;18.270;2023-08-08T01:49:51;9.25;;;2.50;;
51927;SDS011;37953;52.806;18.270;2023-08-08T01:52:17;8.05;;;2.72;;
51927;SDS011;37953;52.806;18.270;2023-08-08T01:54:43;8.13;;;2.30;;
51927;SDS011;37953;52.806;18.270;2023-08-08T01:57:09;9.82;;;2.20;;
51927;SDS011;37953;52.806;18.270;2023-08-08T01:59:35;9.38;;;2.33;;
51927;SDS011;37953;52.806;18.270;2023-08-08T02:02:01;8.60;;;2.20;;
51927;SDS011;37953;52.806;18.270;2023-08-08T02:04:27;8.00;;;2.28;;
51927;SDS011;37953;52.806;18.270;2023-08-08T02:06:53;8.65;;;1.92;;
51927;SDS011;37953;52.806;18.270;2023-08-08T02:09:19;5.40;;;1.80;;
51927;SDS011;37953;52.806;18.270;2023-08-08T02:11:45;7.32;;;1.85;;
51927;SDS011;37953;52.806;18.270;2023-08-08T02:14:11;8.75;;;2.00;;
51927;SDS011;37953;52.806;18.270;2023-08-08T02:16:57;5.47;;;2.10;;
51927;SDS011;37953;52.806;18.270;2023-08-08T02:19:23;7.55;;;1.95;;
51927;SDS011;37953;52.806;18.270;2023-08-08T02:21:49;12.30;;;2.38;;
51927;SDS011;37953;52.806;18.270;2023-08-08T02:24:15;8.38;;;2.15;;
51927;SDS011;37953;52.806;18.270;2023-08-08T02:26:40;9.90;;;2.78;;
51927;SDS011;37953;52.806;18.270;2023-08-08T02:29:06;7.00;;;2.08;;
51927;SDS011;37953;52.806;18.270;2023-08-08T02:31:32;6.85;;;1.90;;
51927;SDS011;37953;52.806;18.270;2023-08-08T02:33:58;5.50;;;1.80;;
51927;SDS011;37953;52.806;18.270;2023-08-08T02:36:24;5.60;;;1.77;;
51927;SDS011;37953;52.806;18.270;2023-08-08T02:38:50;5.85;;;1.52;;
51927;SDS011;37953;52.806;18.270;2023-08-08T02:41:19;4.38;;;1.70;;
51927;SDS011;37953;52.806;18.270;2023-08-08T02:43:46;6.50;;;1.77;;
51927;SDS011;37953;52.806;18.270;2023-08-08T02:46:18;4.82;;;1.67;;
51927;SDS011;37953;52.806;18.270;2023-08-08T02:48:44;7.75;;;1.80;;
51927;SDS011;37953;52.806;18.270;2023-08-08T02:51:09;6.18;;;1.90;;
51927;SDS011;37953;52.806;18.270;2023-08-08T02:53:35;4.82;;;1.70;;
51927;SDS011;37953;52.806;18.270;2023-08-08T02:56:01;7.03;;;1.73;;
51927;SDS011;37953;52.806;18.270;2023-08-08T02:58:27;9.07;;;1.98;;
51927;SDS011;37953;52.806;18.270;2023-08-08T03:00:56;8.02;;;1.70;;
51927;SDS011;37953;52.806;18.270;2023-08-08T03:03:22;9.32;;;2.00;;
51927;SDS011;37953;52.806;18.270;2023-08-08T03:05:49;5.28;;;1.45;;
51927;SDS011;37953;52.806;18.270;2023-08-08T03:08:15;7.07;;;1.85;;
51927;SDS011;37953;52.806;18.270;2023-08-08T03:10:41;5.63;;;1.75;;
51927;SDS011;37953;52.806;18.270;2023-08-08T03:13:07;6.28;;;2.10;;
51927;SDS011;37953;52.806;18.270;2023-08-08T03:15:33;6.03;;;1.75;;
51927;SDS011;37953;52.806;18.270;2023-08-08T03:17:59;7.05;;;1.80;;
51927;SDS011;37953;52.806;18.270;2023-08-08T03:20:24;4.60;;;1.80;;
51927;SDS011;37953;52.806;18.270;2023-08-08T03:22:50;3.67;;;1.70;;
51927;SDS011;37953;52.806;18.270;2023-08-08T03:25:16;4.10;;;1.98;;
51927;SDS011;37953;52.806;18.270;2023-08-08T03:27:42;7.15;;;2.03;;
51927;SDS011;37953;52.806;18.270;2023-08-08T03:30:08;7.30;;;1.77;;
51927;SDS011;37953;52.806;18.270;2023-08-08T03:32:35;5.53;;;1.58;;
51927;SDS011;37953;52.806;18.270;2023-08-08T03:35:00;5.93;;;1.67;;
51927;SDS011;37953;52.806;18.270;2023-08-08T03:37:26;5.03;;;1.40;;
51927;SDS011;37953;52.806;18.270;2023-08-08T03:39:52;6.90;;;1.60;;
51927;SDS011;37953;52.806;18.270;2023-08-08T03:42:18;6.97;;;1.65;;
51927;SDS011;37953;52.806;18.270;2023-08-08T03:44:44;10.75;;;1.88;;
51927;SDS011;37953;52.806;18.270;2023-08-08T03:47:10;4.28;;;1.45;;
51927;SDS011;37953;52.806;18.270;2023-08-08T03:49:36;4.88;;;1.67;;
51927;SDS011;37953;52.806;18.270;2023-08-08T03:52:02;4.68;;;1.50;;
51927;SDS011;37953;52.806;18.270;2023-08-08T03:54:28;4.57;;;1.80;;
51927;SDS011;37953;52.806;18.270;2023-08-08T03:56:54;7.07;;;2.00;;
51927;SDS011;37953;52.806;18.270;2023-08-08T03:59:21;6.80;;;1.85;;
51927;SDS011;37953;52.806;18.270;2023-08-08T04:01:47;5.40;;;1.65;;
51927;SDS011;37953;52.806;18.270;2023-08-08T04:04:12;8.95;;;1.85;;
51927;SDS011;37953;52.806;18.270;2023-08-08T04:06:39;6.47;;;1.70;;
51927;SDS011;37953;52.806;18.270;2023-08-08T04:09:04;7.07;;;1.70;;
51927;SDS011;37953;52.806;18.270;2023-08-08T04:11:30;6.30;;;1.80;;
51927;SDS011;37953;52.806;18.270;2023-08-08T04:13:56;7.13;;;2.00;;
51927;SDS011;37953;52.806;18.270;2023-08-08T04:16:22;7.38;;;1.73;;
51927;SDS011;37953;52.806;18.270;2023-08-08T04:18:48;5.00;;;1.60;;
51927;SDS011;37953;52.806;18.270;2023-08-08T04:21:14;4.90;;;1.50;;
51927;SDS011;37953;52.806;18.270;2023-08-08T04:23:40;5.47;;;1.70;;
51927;SDS011;37953;52.806;18.270;2023-08-08T04:26:06;7.70;;;2.30;;
51927;SDS011;37953;52.806;18.270;2023-08-08T04:28:32;6.47;;;1.80;;
51927;SDS011;37953;52.806;18.270;2023-08-08T04:30:58;4.18;;;1.85;;
51927;SDS011;37953;52.806;18.270;2023-08-08T04:33:24;8.68;;;1.73;;
51927;SDS011;37953;52.806;18.270;2023-08-08T04:35:50;9.02;;;2.00;;
51927;SDS011;37953;52.806;18.270;2023-08-08T04:38:16;7.88;;;1.95;;
51927;SDS011;37953;52.806;18.270;2023-08-08T04:40:42;5.82;;;1.77;;
51927;SDS011;37953;52.806;18.270;2023-08-08T04:43:08;5.78;;;1.85;;
51927;SDS011;37953;52.806;18.270;2023-08-08T04:45:34;5.68;;;1.73;;
51927;SDS011;37953;52.806;18.270;2023-08-08T04:48:00;3.55;;;1.38;;
51927;SDS011;37953;52.806;18.270;2023-08-08T04:50:26;5.43;;;1.83;;
51927;SDS011;37953;52.806;18.270;2023-08-08T04:52:52;3.75;;;1.58;;
51927;SDS011;37953;52.806;18.270;2023-08-08T04:55:18;6.88;;;1.90;;
51927;SDS011;37953;52.806;18.270;2023-08-08T04:57:44;6.07;;;1.70;;
51927;SDS011;37953;52.806;18.270;2023-08-08T05:00:10;7.82;;;1.95;;
51927;SDS011;37953;52.806;18.270;2023-08-08T05:02:37;6.93;;;1.98;;
51927;SDS011;37953;52.806;18.270;2023-08-08T05:05:05;7.20;;;2.15;;
51927;SDS011;37953;52.806;18.270;2023-08-08T05:07:31;5.93;;;1.90;;
51927;SDS011;37953;52.806;18.270;2023-08-08T05:09:57;7.53;;;1.88;;
51927;SDS011;37953;52.806;18.270;2023-08-08T05:12:22;8.02;;;1.95;;
51927;SDS011;37953;52.806;18.270;2023-08-08T05:14:51;5.50;;;1.80;;
51927;SDS011;37953;52.806;18.270;2023-08-08T05:17:17;6.82;;;1.80;;
51927;SDS011;37953;52.806;18.270;2023-08-08T05:19:43;6.47;;;1.80;;
51927;SDS011;37953;52.806;18.270;2023-08-08T05:22:09;6.25;;;2.00;;
51927;SDS011;37953;52.806;18.270;2023-08-08T05:24:35;7.28;;;2.20;;
51927;SDS011;37953;52.806;18.270;2023-08-08T05:27:01;7.18;;;2.25;;
51927;SDS011;37953;52.806;18.270;2023-08-08T05:29:28;10.38;;;2.30;;
51927;SDS011;37953;52.806;18.270;2023-08-08T05:31:55;9.40;;;2.10;;
51927;SDS011;37953;52.806;18.270;2023-08-08T05:34:23;5.97;;;2.10;;
51927;SDS011;37953;52.806;18.270;2023-08-08T05:36:49;6.72;;;1.73;;
51927;SDS011;37953;52.806;18.270;2023-08-08T05:39:15;5.45;;;1.70;;
51927;SDS011;37953;52.806;18.270;2023-08-08T05:41:41;6.72;;;1.98;;
51927;SDS011;37953;52.806;18.270;2023-08-08T05:44:07;8.32;;;2.10;;
51927;SDS011;37953;52.806;18.270;2023-08-08T05:46:33;4.68;;;1.80;;
51927;SDS011;37953;52.806;18.270;2023-08-08T05:48:59;4.13;;;1.80;;
51927;SDS011;37953;52.806;18.270;2023-08-08T05:51:26;4.43;;;1.63;;
51927;SDS011;37953;52.806;18.270;2023-08-08T05:53:52;6.28;;;1.88;;
51927;SDS011;37953;52.806;18.270;2023-08-08T05:56:18;6.43;;;1.73;;
51927;SDS011;37953;52.806;18.270;2023-08-08T05:58:44;9.55;;;1.83;;
51927;SDS011;37953;52.806;18.270;2023-08-08T06:01:10;8.57;;;2.13;;
51927;SDS011;37953;52.806;18.270;2023-08-08T06:03:37;10.82;;;2.53;;
51927;SDS011;37953;52.806;18.270;2023-08-08T06:06:03;7.70;;;1.80;;
51927;SDS011;37953;52.806;18.270;2023-08-08T06:08:30;7.65;;;2.10;;
51927;SDS011;37953;52.806;18.270;2023-08-08T06:10:57;4.32;;;1.75;;
51927;SDS011;37953;52.806;18.270;2023-08-08T06:13:29;6.57;;;1.98;;
51927;SDS011;37953;52.806;18.270;2023-08-08T06:15:55;5.80;;;1.85;;
51927;SDS011;37953;52.806;18.270;2023-08-08T06:18:21;5.65;;;1.73;;
51927;SDS011;37953;52.806;18.270;2023-08-08T06:20:47;7.68;;;1.73;;
51927;SDS011;37953;52.806;18.270;2023-08-08T06:23:13;7.60;;;2.00;;
51927;SDS011;37953;52.806;18.270;2023-08-08T06:25:40;5.85;;;1.60;;
51927;SDS011;37953;52.806;18.270;2023-08-08T06:28:06;6.57;;;1.70;;
51927;SDS011;37953;52.806;18.270;2023-08-08T06:30:32;7.40;;;1.63;;
51927;SDS011;37953;52.806;18.270;2023-08-08T06:32:58;5.32;;;1.42;;
51927;SDS011;37953;52.806;18.270;2023-08-08T06:35:24;7.40;;;1.67;;
51927;SDS011;37953;52.806;18.270;2023-08-08T06:37:50;5.22;;;1.83;;
51927;SDS011;37953;52.806;18.270;2023-08-08T06:40:16;5.88;;;1.73;;
51927;SDS011;37953;52.806;18.270;2023-08-08T06:42:42;6.15;;;1.65;;
51927;SDS011;37953;52.806;18.270;2023-08-08T06:45:08;7.13;;;1.65;;
51927;SDS011;37953;52.806;18.270;2023-08-08T06:47:35;6.32;;;1.60;;
51927;SDS011;37953;52.806;18.270;2023-08-08T06:50:02;9.07;;;2.10;;
51927;SDS011;37953;52.806;18.270;2023-08-08T06:52:30;9.70;;;3.05;;
51927;SDS011;37953;52.806;18.270;2023-08-08T06:54:55;7.95;;;1.60;;
51927;SDS011;37953;52.806;18.270;2023-08-08T06:57:23;7.57;;;1.50;;
51927;SDS011;37953;52.806;18.270;2023-08-08T06:59:49;5.40;;;1.70;;
51927;SDS011;37953;52.806;18.270;2023-08-08T07:02:16;15.88;;;1.50;;
51927;SDS011;37953;52.806;18.270;2023-08-08T07:04:46;5.50;;;1.80;;
51927;SDS011;37953;52.806;18.270;2023-08-08T07:07:13;5.38;;;1.52;;
51927;SDS011;37953;52.806;18.270;2023-08-08T07:09:40;6.75;;;2.08;;
51927;SDS011;37953;52.806;18.270;2023-08-08T07:12:08;9.15;;;2.28;;
51927;SDS011;37953;52.806;18.270;2023-08-08T07:14:36;5.57;;;1.92;;
51927;SDS011;37953;52.806;18.270;2023-08-08T07:17:02;9.43;;;1.88;;
51927;SDS011;37953;52.806;18.270;2023-08-08T07:19:29;5.80;;;1.60;;
51927;SDS011;37953;52.806;18.270;2023-08-08T07:21:55;5.75;;;1.73;;
51927;SDS011;37953;52.806;18.270;2023-08-08T07:24:27;5.88;;;1.60;;
51927;SDS011;37953;52.806;18.270;2023-08-08T07:26:56;3.55;;;1.45;;
51927;SDS011;37953;52.806;18.270;2023-08-08T07:29:23;7.80;;;1.92;;
51927;SDS011;37953;52.806;18.270;2023-08-08T07:31:51;5.28;;;1.48;;
51927;SDS011;37953;52.806;18.270;2023-08-08T07:34:18;6.07;;;1.70;;
51927;SDS011;37953;52.806;18.270;2023-08-08T07:36:45;6.13;;;1.75;;
51927;SDS011;37953;52.806;18.270;2023-08-08T07:39:11;6.07;;;1.67;;
51927;SDS011;37953;52.806;18.270;2023-08-08T07:41:38;5.75;;;1.70;;
51927;SDS011;37953;52.806;18.270;2023-08-08T07:44:04;4.70;;;1.60;;
51927;SDS011;37953;52.806;18.270;2023-08-08T07:46:31;2.97;;;1.35;;
51927;SDS011;37953;52.806;18.270;2023-08-08T07:48:57;5.40;;;1.50;;
51927;SDS011;37953;52.806;18.270;2023-08-08T07:51:29;5.88;;;1.50;;
51927;SDS011;37953;52.806;18.270;2023-08-08T07:53:55;6.47;;;1.60;;
51927;SDS011;37953;52.806;18.270;2023-08-08T07:56:21;5.95;;;1.65;;
51927;SDS011;37953;52.806;18.270;2023-08-08T07:58:47;8.80;;;1.70;;
51927;SDS011;37953;52.806;18.270;2023-08-08T08:01:13;8.85;;;1.90;;
51927;SDS011;37953;52.806;18.270;2023-08-08T08:03:39;6.38;;;1.65;;
51927;SDS011;37953;52.806;18.270;2023-08-08T08:06:06;3.40;;;1.30;;
51927;SDS011;37953;52.806;18.270;2023-08-08T08:08:32;5.90;;;1.40;;
51927;SDS011;37953;52.806;18.270;2023-08-08T08:10:58;4.47;;;1.58;;
51927;SDS011;37953;52.806;18.270;2023-08-08T08:13:24;5.13;;;1.50;;
51927;SDS011;37953;52.806;18.270;2023-08-08T08:15:50;5.63;;;1.60;;
51927;SDS011;37953;52.806;18.270;2023-08-08T08:18:16;6.38;;;1.58;;
51927;SDS011;37953;52.806;18.270;2023-08-08T08:20:43;6.00;;;1.60;;
51927;SDS011;37953;52.806;18.270;2023-08-08T08:23:09;5.18;;;1.60;;
51927;SDS011;37953;52.806;18.270;2023-08-08T08:25:36;5.03;;;1.45;;
51927;SDS011;37953;52.806;18.270;2023-08-08T08:28:02;5.47;;;1.40;;
51927;SDS011;37953;52.806;18.270;2023-08-08T08:30:28;7.57;;;1.73;;
51927;SDS011;37953;52.806;18.270;2023-08-08T08:32:54;5.97;;;1.80;;
51927;SDS011;37953;52.806;18.270;2023-08-08T08:35:20;5.25;;;1.73;;
51927;SDS011;37953;52.806;18.270;2023-08-08T08:37:46;6.22;;;1.90;;
51927;SDS011;37953;52.806;18.270;2023-08-08T08:40:12;6.38;;;1.80;;
51927;SDS011;37953;52.806;18.270;2023-08-08T08:42:45;4.68;;;1.67;;
51927;SDS011;37953;52.806;18.270;2023-08-08T08:45:13;9.00;;;1.48;;
51927;SDS011;37953;52.806;18.270;2023-08-08T08:50:31;8.70;;;1.85;;
51927;SDS011;37953;52.806;18.270;2023-08-08T08:53:05;8.60;;;1.73;;
51927;SDS011;37953;52.806;18.270;2023-08-08T08:55:32;5.43;;;1.48;;
51927;SDS011;37953;52.806;18.270;2023-08-08T08:57:58;5.97;;;1.60;;
51927;SDS011;37953;52.806;18.270;2023-08-08T09:00:24;4.65;;;1.30;;
51927;SDS011;37953;52.806;18.270;2023-08-08T09:02:51;9.57;;;1.60;;
51927;SDS011;37953;52.806;18.270;2023-08-08T09:05:18;7.90;;;1.63;;
51927;SDS011;37953;52.806;18.270;2023-08-08T09:07:47;5.93;;;1.70;;
51927;SDS011;37953;52.806;18.270;2023-08-08T09:10:17;6.85;;;1.70;;
51927;SDS011;37953;52.806;18.270;2023-08-08T09:12:44;5.95;;;1.77;;
51927;SDS011;37953;52.806;18.270;2023-08-08T09:15:11;7.38;;;2.05;;
51927;SDS011;37953;52.806;18.270;2023-08-08T09:17:42;8.15;;;2.00;;
51927;SDS011;37953;52.806;18.270;2023-08-08T09:20:09;8.45;;;2.03;;
51927;SDS011;37953;52.806;18.270;2023-08-08T09:22:37;4.85;;;1.63;;
51927;SDS011;37953;52.806;18.270;2023-08-08T09:25:04;7.32;;;1.58;;
51927;SDS011;37953;52.806;18.270;2023-08-08T09:27:31;7.18;;;1.45;;
51927;SDS011;37953;52.806;18.270;2023-08-08T09:29:56;3.63;;;1.25;;
51927;SDS011;37953;52.806;18.270;2023-08-08T09:32:23;4.97;;;1.40;;
51927;SDS011;37953;52.806;18.270;2023-08-08T09:34:55;5.43;;;1.50;;
51927;SDS011;37953;52.806;18.270;2023-08-08T09:37:22;4.60;;;1.67;;
51927;SDS011;37953;52.806;18.270;2023-08-08T09:39:58;3.30;;;1.33;;
51927;SDS011;37953;52.806;18.270;2023-08-08T09:42:27;8.40;;;1.90;;
51927;SDS011;37953;52.806;18.270;2023-08-08T09:44:56;5.30;;;1.60;;
51927;SDS011;37953;52.806;18.270;2023-08-08T09:47:22;5.38;;;1.58;;
51927;SDS011;37953;52.806;18.270;2023-08-08T09:49:49;5.55;;;1.55;;
51927;SDS011;37953;52.806;18.270;2023-08-08T09:52:16;5.57;;;2.03;;
51927;SDS011;37953;52.806;18.270;2023-08-08T09:54:43;3.88;;;1.50;;
51927;SDS011;37953;52.806;18.270;2023-08-08T09:57:09;4.65;;;1.65;;
51927;SDS011;37953;52.806;18.270;2023-08-08T09:59:36;6.50;;;1.75;;
51927;SDS011;37953;52.806;18.270;2023-08-08T10:02:03;5.40;;;1.52;;
51927;SDS011;37953;52.806;18.270;2023-08-08T10:04:30;4.28;;;1.42;;
51927;SDS011;37953;52.806;18.270;2023-08-08T10:06:56;5.10;;;1.75;;
51927;SDS011;37953;52.806;18.270;2023-08-08T10:09:23;6.00;;;1.50;;
51927;SDS011;37953;52.806;18.270;2023-08-08T10:11:50;5.10;;;1.63;;
51927;SDS011;37953;52.806;18.270;2023-08-08T10:14:17;5.20;;;1.52;;
51927;SDS011;37953;52.806;18.270;2023-08-08T10:16:43;5.60;;;1.70;;
51927;SDS011;37953;52.806;18.270;2023-08-08T10:19:12;10.27;;;1.65;;
51927;SDS011;37953;52.806;18.270;2023-08-08T10:21:41;4.55;;;1.50;;
51927;SDS011;37953;52.806;18.270;2023-08-08T10:24:09;4.30;;;1.50;;
51927;SDS011;37953;52.806;18.270;2023-08-08T10:29:31;4.70;;;1.33;;
51927;SDS011;37953;52.806;18.270;2023-08-08T10:31:58;4.05;;;1.42;;
51927;SDS011;37953;52.806;18.270;2023-08-08T10:34:44;6.72;;;1.70;;
51927;SDS011;37953;52.806;18.270;2023-08-08T10:37:20;6.30;;;1.48;;
51927;SDS011;37953;52.806;18.270;2023-08-08T10:39:53;5.88;;;1.45;;
51927;SDS011;37953;52.806;18.270;2023-08-08T10:42:20;4.50;;;1.42;;
51927;SDS011;37953;52.806;18.270;2023-08-08T10:44:55;4.43;;;1.45;;
51927;SDS011;37953;52.806;18.270;2023-08-08T10:47:30;4.88;;;1.52;;
51927;SDS011;37953;52.806;18.270;2023-08-08T10:50:05;4.00;;;1.30;;
51927;SDS011;37953;52.806;18.270;2023-08-08T10:52:59;6.32;;;1.40;;
51927;SDS011;37953;52.806;18.270;2023-08-08T10:55:25;6.88;;;1.30;;
51927;SDS011;37953;52.806;18.270;2023-08-08T10:57:53;3.85;;;1.27;;
51927;SDS011;37953;52.806;18.270;2023-08-08T11:00:36;4.57;;;1.37;;
51927;SDS011;37953;52.806;18.270;2023-08-08T11:03:07;5.55;;;1.42;;
51927;SDS011;37953;52.806;18.270;2023-08-08T11:05:35;7.85;;;1.45;;
51927;SDS011;37953;52.806;18.270;2023-08-08T11:08:02;4.93;;;1.42;;
51927;SDS011;37953;52.806;18.270;2023-08-08T11:10:39;4.60;;;1.20;;
51927;SDS011;37953;52.806;18.270;2023-08-08T11:13:06;3.05;;;1.20;;
51927;SDS011;37953;52.806;18.270;2023-08-08T11:15:34;4.43;;;1.45;;
51927;SDS011;37953;52.806;18.270;2023-08-08T11:18:01;5.50;;;1.40;;
51927;SDS011;37953;52.806;18.270;2023-08-08T11:20:29;4.18;;;1.35;;
51927;SDS011;37953;52.806;18.270;2023-08-08T11:22:59;4.68;;;1.38;;
51927;SDS011;37953;52.806;18.270;2023-08-08T11:25:27;5.22;;;1.45;;
51927;SDS011;37953;52.806;18.270;2023-08-08T11:27:54;4.75;;;1.40;;
51927;SDS011;37953;52.806;18.270;2023-08-08T11:30:22;2.60;;;1.00;;
51927;SDS011;37953;52.806;18.270;2023-08-08T11:32:49;4.72;;;1.38;;
51927;SDS011;37953;52.806;18.270;2023-08-08T11:35:16;3.92;;;1.38;;
51927;SDS011;37953;52.806;18.270;2023-08-08T11:37:44;3.47;;;1.27;;
51927;SDS011;37953;52.806;18.270;2023-08-08T11:40:12;5.28;;;1.52;;
51927;SDS011;37953;52.806;18.270;2023-08-08T11:42:45;4.95;;;1.40;;
51927;SDS011;37953;52.806;18.270;2023-08-08T11:45:13;4.18;;;1.45;;
51927;SDS011;37953;52.806;18.270;2023-08-08T11:47:39;4.32;;;1.38;;
51927;SDS011;37953;52.806;18.270;2023-08-08T11:50:07;3.10;;;1.20;;
51927;SDS011;37953;52.806;18.270;2023-08-08T11:52:35;6.28;;;1.38;;
51927;SDS011;37953;52.806;18.270;2023-08-08T11:55:05;6.20;;;1.20;;
51927;SDS011;37953;52.806;18.270;2023-08-08T11:57:33;4.50;;;1.40;;
51927;SDS011;37953;52.806;18.270;2023-08-08T12:00:02;3.70;;;1.10;;
51927;SDS011;37953;52.806;18.270;2023-08-08T12:02:35;8.77;;;1.58;;
51927;SDS011;37953;52.806;18.270;2023-08-08T12:05:05;3.22;;;1.20;;
51927;SDS011;37953;52.806;18.270;2023-08-08T12:07:32;2.78;;;1.08;;
51927;SDS011;37953;52.806;18.270;2023-08-08T12:10:00;5.75;;;1.55;;
51927;SDS011;37953;52.806;18.270;2023-08-08T12:12:27;2.90;;;1.17;;
51927;SDS011;37953;52.806;18.270;2023-08-08T12:14:53;3.90;;;1.20;;
51927;SDS011;37953;52.806;18.270;2023-08-08T12:17:22;4.80;;;1.25;;
51927;SDS011;37953;52.806;18.270;2023-08-08T12:19:48;5.05;;;1.33;;
51927;SDS011;37953;52.806;18.270;2023-08-08T12:22:14;4.57;;;1.33;;
51927;SDS011;37953;52.806;18.270;2023-08-08T12:24:41;4.28;;;1.02;;
51927;SDS011;37953;52.806;18.270;2023-08-08T12:27:06;3.40;;;1.25;;
51927;SDS011;37953;52.806;18.270;2023-08-08T12:29:33;5.93;;;1.17;;
51927;SDS011;37953;52.806;18.270;2023-08-08T12:32:01;4.30;;;1.63;;
51927;SDS011;37953;52.806;18.270;2023-08-08T12:34:28;4.15;;;1.40;;
51927;SDS011;37953;52.806;18.270;2023-08-08T12:36:54;3.65;;;1.30;;
51927;SDS011;37953;52.806;18.270;2023-08-08T12:39:20;5.75;;;1.75;;
51927;SDS011;37953;52.806;18.270;2023-08-08T12:41:48;5.75;;;1.23;;
51927;SDS011;37953;52.806;18.270;2023-08-08T12:44:14;8.95;;;1.88;;
51927;SDS011;37953;52.806;18.270;2023-08-08T12:46:40;7.70;;;1.60;;
51927;SDS011;37953;52.806;18.270;2023-08-08T12:49:12;4.22;;;1.40;;
51927;SDS011;37953;52.806;18.270;2023-08-08T12:51:38;4.05;;;1.25;;
51927;SDS011;37953;52.806;18.270;2023-08-08T12:54:04;5.32;;;1.70;;
51927;SDS011;37953;52.806;18.270;2023-08-08T12:56:30;3.42;;;1.27;;
51927;SDS011;37953;52.806;18.270;2023-08-08T12:58:56;5.00;;;1.58;;
51927;SDS011;37953;52.806;18.270;2023-08-08T13:01:22;4.95;;;1.52;;
51927;SDS011;37953;52.806;18.270;2023-08-08T13:03:50;5.88;;;1.80;;
51927;SDS011;37953;52.806;18.270;2023-08-08T13:06:16;4.65;;;1.45;;
51927;SDS011;37953;52.806;18.270;2023-08-08T13:08:42;5.85;;;1.52;;
51927;SDS011;37953;52.806;18.270;2023-08-08T13:11:08;3.92;;;1.52;;
51927;SDS011;37953;52.806;18.270;2023-08-08T13:13:34;2.38;;;1.20;;
51927;SDS011;37953;52.806;18.270;2023-08-08T13:16:00;4.22;;;1.25;;
51927;SDS011;37953;52.806;18.270;2023-08-08T13:18:26;3.50;;;1.50;;
51927;SDS011;37953;52.806;18.270;2023-08-08T13:20:52;8.13;;;1.73;;
51927;SDS011;37953;52.806;18.270;2023-08-08T13:23:18;3.38;;;1.08;;
51927;SDS011;37953;52.806;18.270;2023-08-08T13:25:44;4.75;;;1.33;;
51927;SDS011;37953;52.806;18.270;2023-08-08T13:28:10;3.40;;;1.15;;
51927;SDS011;37953;52.806;18.270;2023-08-08T13:30:37;3.22;;;1.30;;
51927;SDS011;37953;52.806;18.270;2023-08-08T13:33:03;3.97;;;1.58;;
51927;SDS011;37953;52.806;18.270;2023-08-08T13:35:29;3.88;;;1.48;;
51927;SDS011;37953;52.806;18.270;2023-08-08T13:37:57;2.42;;;1.05;;
51927;SDS011;37953;52.806;18.270;2023-08-08T13:40:23;3.35;;;1.33;;
51927;SDS011;37953;52.806;18.270;2023-08-08T13:42:49;4.95;;;1.27;;
51927;SDS011;37953;52.806;18.270;2023-08-08T13:45:19;5.03;;;1.15;;
51927;SDS011;37953;52.806;18.270;2023-08-08T13:47:52;4.22;;;0.90;;
51927;SDS011;37953;52.806;18.270;2023-08-08T13:50:17;1.90;;;0.75;;
51927;SDS011;37953;52.806;18.270;2023-08-08T13:52:44;2.33;;;0.80;;
51927;SDS011;37953;52.806;18.270;2023-08-08T13:55:10;5.72;;;1.50;;
51927;SDS011;37953;52.806;18.270;2023-08-08T13:57:36;2.45;;;1.15;;
51927;SDS011;37953;52.806;18.270;2023-08-08T14:00:02;3.50;;;1.33;;
51927;SDS011;37953;52.806;18.270;2023-08-08T14:02:33;6.53;;;1.30;;
51927;SDS011;37953;52.806;18.270;2023-08-08T14:04:58;4.53;;;1.33;;
51927;SDS011;37953;52.806;18.270;2023-08-08T14:07:25;2.60;;;1.35;;
51927;SDS011;37953;52.806;18.270;2023-08-08T14:09:52;3.25;;;1.23;;
51927;SDS011;37953;52.806;18.270;2023-08-08T14:12:18;6.32;;;1.50;;
51927;SDS011;37953;52.806;18.270;2023-08-08T14:14:44;4.70;;;1.25;;
51927;SDS011;37953;52.806;18.270;2023-08-08T14:17:10;2.72;;;1.05;;
51927;SDS011;37953;52.806;18.270;2023-08-08T14:19:37;3.53;;;1.30;;
51927;SDS011;37953;52.806;18.270;2023-08-08T14:22:04;3.50;;;1.35;;
51927;SDS011;37953;52.806;18.270;2023-08-08T14:24:30;2.40;;;1.27;;
51927;SDS011;37953;52.806;18.270;2023-08-08T14:26:56;5.15;;;1.27;;
51927;SDS011;37953;52.806;18.270;2023-08-08T14:29:22;4.40;;;1.52;;
51927;SDS011;37953;52.806;18.270;2023-08-08T14:31:55;4.28;;;1.60;;
51927;SDS011;37953;52.806;18.270;2023-08-08T14:34:28;3.92;;;1.60;;
51927;SDS011;37953;52.806;18.270;2023-08-08T14:37:03;5.63;;;1.40;;
51927;SDS011;37953;52.806;18.270;2023-08-08T14:39:31;3.80;;;1.35;;
51927;SDS011;37953;52.806;18.270;2023-08-08T14:41:57;6.40;;;1.77;;
51927;SDS011;37953;52.806;18.270;2023-08-08T14:44:26;4.25;;;1.73;;